Time;durP1;ratioP1;P1;durP2;ratioP2;P2;SDS_P1;SDS_P2;PMS_P1;PMS_P2;Temp;Humidity;BMP_temperature;BMP_pressure;BME280_temperature;BME280_humidity;BME280_pressure;Samples;Min_cycle;Max_cycle;Signal;HPM_P1;HPM_P2
2022/07/20 00:02:02;;;;;;;4.07;2.60;;;;;;;;;;5044451;28;20040;-75
2022/07/20 00:04:27;;;;;;;3.47;2.60;;;;;;;;;;5022718;28;20027;-73
2022/07/20 00:06:54;;;;;;;3.10;2.80;;;;;;;;;;5044538;28;20579;-75
2022/07/20 00:12:04;;;;;;;3.38;2.97;;;;;;;;;;5038044;28;20074;-75
2022/07/20 00:14:29;;;;;;;4.30;3.03;;;;;;;;;;5034408;28;20028;-81
2022/07/20 00:16:54;;;;;;;3.05;2.80;;;;;;;;;;5040913;28;20076;-75
2022/07/20 00:19:20;;;;;;;4.13;3.05;;;;;;;;;;5043081;28;20036;-75
2022/07/20 00:21:46;;;;;;;5.55;3.25;;;;;;;;;;5043115;28;20174;-76
2022/07/20 00:24:11;;;;;;;6.55;2.97;;;;;;;;;;5042374;28;20068;-77
2022/07/20 00:26:36;;;;;;;3.67;3.08;;;;;;;;;;5042065;28;20183;-75
2022/07/20 00:29:02;;;;;;;3.35;3.03;;;;;;;;;;5040854;28;20469;-76
2022/07/20 00:31:27;;;;;;;3.60;3.30;;;;;;;;;;5033980;28;20029;-76
2022/07/20 00:33:53;;;;;;;6.82;3.13;;;;;;;;;;5042436;28;20029;-76
2022/07/20 00:36:19;;;;;;;5.88;3.30;;;;;;;;;;5042811;28;20654;-80
2022/07/20 00:38:44;;;;;;;3.08;2.88;;;;;;;;;;5041478;28;20036;-75
2022/07/20 00:41:10;;;;;;;4.15;2.67;;;;;;;;;;5043180;28;20654;-75
2022/07/20 00:44:02;;;;;;;4.43;3.20;;;;;;;;;;5040302;28;20094;-75
2022/07/20 00:46:28;;;;;;;3.05;2.78;;;;;;;;;;5039017;28;20045;-80
2022/07/20 00:48:53;;;;;;;3.17;2.88;;;;;;;;;;5043225;28;20028;-76
2022/07/20 00:51:19;;;;;;;3.38;2.97;;;;;;;;;;5042998;28;20071;-73
2022/07/20 00:53:45;;;;;;;3.65;3.13;;;;;;;;;;5041934;28;20402;-74
2022/07/20 00:56:10;;;;;;;6.32;2.70;;;;;;;;;;5042494;28;20033;-81
2022/07/20 00:58:36;;;;;;;3.17;2.88;;;;;;;;;;5041763;28;20102;-74
2022/07/20 01:01:01;;;;;;;3.08;2.83;;;;;;;;;;5041762;28;20033;-78
2022/07/20 01:03:27;;;;;;;2.65;2.45;;;;;;;;;;5043215;28;20029;-75
2022/07/20 01:05:52;;;;;;;3.08;2.63;;;;;;;;;;5041674;28;20036;-78
2022/07/20 01:08:18;;;;;;;3.10;2.65;;;;;;;;;;5042883;28;20329;-74
2022/07/20 01:10:43;;;;;;;3.53;2.97;;;;;;;;;;5040656;28;20075;-73
2022/07/20 01:13:09;;;;;;;3.20;2.90;;;;;;;;;;5040569;28;20127;-77
2022/07/20 01:15:34;;;;;;;3.13;2.80;;;;;;;;;;5041962;28;20043;-71
2022/07/20 01:17:59;;;;;;;3.03;2.83;;;;;;;;;;5041546;28;20021;-75
2022/07/20 01:20:25;;;;;;;3.83;3.08;;;;;;;;;;5041934;28;20040;-74
2022/07/20 01:22:50;;;;;;;3.75;3.22;;;;;;;;;;5045670;28;20025;-81
2022/07/20 01:25:15;;;;;;;3.50;3.20;;;;;;;;;;5033580;28;20106;-75
2022/07/20 01:27:41;;;;;;;3.13;2.92;;;;;;;;;;5040439;28;20146;-76
2022/07/20 01:30:07;;;;;;;3.90;3.10;;;;;;;;;;5042087;28;20838;-76
2022/07/20 01:32:32;;;;;;;3.40;2.72;;;;;;;;;;5042685;28;20024;-74
2022/07/20 01:34:58;;;;;;;3.63;3.28;;;;;;;;;;5041485;28;20032;-73
2022/07/20 01:37:23;;;;;;;3.50;3.20;;;;;;;;;;5041676;28;20045;-76
2022/07/20 01:39:48;;;;;;;4.20;3.45;;;;;;;;;;5041708;28;20017;-73
2022/07/20 01:42:14;;;;;;;4.28;3.63;;;;;;;;;;5037980;28;20031;-74
2022/07/20 01:44:39;;;;;;;4.50;3.20;;;;;;;;;;5038450;28;20024;-77
2022/07/20 01:47:05;;;;;;;5.22;3.08;;;;;;;;;;5041598;28;20070;-75
2022/07/20 01:49:30;;;;;;;3.72;3.42;;;;;;;;;;5041334;28;20029;-80
2022/07/20 01:51:55;;;;;;;3.22;2.90;;;;;;;;;;5041315;28;20492;-76
2022/07/20 01:54:21;;;;;;;3.17;2.88;;;;;;;;;;5041326;28;20076;-72
2022/07/20 01:56:46;;;;;;;6.22;4.07;;;;;;;;;;5041813;28;20068;-75
2022/07/20 01:59:11;;;;;;;5.53;3.95;;;;;;;;;;5041810;28;20514;-72
2022/07/20 02:01:37;;;;;;;4.40;3.42;;;;;;;;;;5040151;28;20047;-72
2022/07/20 02:04:03;;;;;;;3.97;3.47;;;;;;;;;;5033307;28;20024;-77
2022/07/20 02:06:29;;;;;;;7.03;4.25;;;;;;;;;;5040905;28;20037;-72
2022/07/20 02:08:55;;;;;;;6.00;4.28;;;;;;;;;;5041123;28;20057;-73
2022/07/20 02:11:20;;;;;;;4.47;3.70;;;;;;;;;;5042222;28;20060;-73
2022/07/20 02:13:45;;;;;;;5.22;3.80;;;;;;;;;;5040544;28;20031;-72
2022/07/20 02:16:16;;;;;;;4.78;4.18;;;;;;;;;;5039854;28;20040;-72
2022/07/20 02:18:42;;;;;;;11.82;7.03;;;;;;;;;;5041726;28;20459;-72
2022/07/20 02:21:07;;;;;;;17.00;10.30;;;;;;;;;;5042336;28;20029;-73
2022/07/20 02:23:33;;;;;;;24.88;12.45;;;;;;;;;;5042168;28;20029;-74
2022/07/20 02:25:58;;;;;;;30.92;15.18;;;;;;;;;;5042001;28;20492;-80
2022/07/20 02:28:23;;;;;;;19.65;9.68;;;;;;;;;;5041129;28;20025;-75
2022/07/20 02:30:49;;;;;;;8.05;5.93;;;;;;;;;;5040939;28;20013;-73
2022/07/20 02:33:14;;;;;;;6.45;4.68;;;;;;;;;;5030567;28;20833;-81
2022/07/20 02:35:40;;;;;;;4.65;3.60;;;;;;;;;;5039318;28;20021;-76
2022/07/20 02:38:05;;;;;;;3.30;3.00;;;;;;;;;;5040598;28;20039;-74
2022/07/20 02:40:30;;;;;;;3.65;3.35;;;;;;;;;;5043047;28;20036;-73
2022/07/20 02:42:56;;;;;;;3.47;2.88;;;;;;;;;;5039766;28;20034;-73
2022/07/20 02:45:22;;;;;;;3.63;3.33;;;;;;;;;;5043142;28;20036;-75
2022/07/20 02:47:47;;;;;;;3.80;3.50;;;;;;;;;;5045087;28;20115;-83
2022/07/20 02:50:13;;;;;;;3.30;3.10;;;;;;;;;;5043878;28;20037;-75
2022/07/20 02:52:39;;;;;;;4.03;3.00;;;;;;;;;;5042807;28;20045;-77
2022/07/20 02:55:05;;;;;;;3.30;3.00;;;;;;;;;;5041196;28;20032;-79
2022/07/20 02:57:30;;;;;;;5.18;3.33;;;;;;;;;;5038344;28;20036;-74
2022/07/20 02:59:55;;;;;;;3.10;2.85;;;;;;;;;;5039782;28;20431;-75
2022/07/20 03:02:21;;;;;;;3.70;3.40;;;;;;;;;;5039505;28;20104;-75
2022/07/20 03:04:46;;;;;;;4.43;3.05;;;;;;;;;;5039153;28;20056;-76
2022/07/20 03:07:11;;;;;;;3.92;2.95;;;;;;;;;;5044423;28;20025;-75
2022/07/20 03:09:37;;;;;;;3.25;2.95;;;;;;;;;;5043787;28;20063;-74
2022/07/20 03:12:02;;;;;;;3.60;3.13;;;;;;;;;;5042742;28;20385;-81
2022/07/20 03:14:27;;;;;;;3.70;3.03;;;;;;;;;;5040062;28;20111;-80
2022/07/20 03:16:53;;;;;;;4.15;2.70;;;;;;;;;;5040475;28;20036;-75
2022/07/20 03:19:18;;;;;;;3.28;2.97;;;;;;;;;;5043116;28;20426;-76
2022/07/20 03:21:43;;;;;;;3.58;3.28;;;;;;;;;;5043979;28;20040;-77
2022/07/20 03:24:09;;;;;;;4.03;3.05;;;;;;;;;;5043711;28;20463;-76
2022/07/20 03:26:35;;;;;;;4.10;3.60;;;;;;;;;;5041936;28;20029;-76
2022/07/20 03:29:00;;;;;;;3.05;2.83;;;;;;;;;;5037953;28;20021;-74
2022/07/20 03:31:25;;;;;;;3.28;2.97;;;;;;;;;;5043949;28;20025;-78
2022/07/20 03:33:51;;;;;;;4.65;3.47;;;;;;;;;;5044081;28;20115;-77
2022/07/20 03:36:16;;;;;;;3.22;2.90;;;;;;;;;;5043464;28;20030;-84
2022/07/20 03:38:41;;;;;;;3.65;3.30;;;;;;;;;;5042630;28;20058;-80
2022/07/20 03:41:07;;;;;;;3.58;3.28;;;;;;;;;;5042958;28;20037;-80
2022/07/20 03:43:32;;;;;;;5.20;3.53;;;;;;;;;;5041520;28;20033;-84
2022/07/20 03:45:57;;;;;;;4.60;3.50;;;;;;;;;;5042278;28;20643;-79
2022/07/20 03:48:23;;;;;;;3.38;3.08;;;;;;;;;;5043864;28;20055;-77
2022/07/20 03:50:48;;;;;;;4.05;3.00;;;;;;;;;;5042080;28;20463;-80
2022/07/20 03:53:13;;;;;;;3.72;3.13;;;;;;;;;;5043500;28;20386;-76
2022/07/20 03:55:39;;;;;;;3.97;3.58;;;;;;;;;;5044269;28;20111;-79
2022/07/20 03:58:04;;;;;;;4.05;3.65;;;;;;;;;;5043743;28;20035;-75
2022/07/20 04:00:30;;;;;;;5.55;3.53;;;;;;;;;;5043943;28;20032;-84
2022/07/20 04:02:56;;;;;;;3.92;3.50;;;;;;;;;;5043803;28;20033;-81
2022/07/20 04:05:21;;;;;;;5.78;3.67;;;;;;;;;;5043456;28;20638;-79
2022/07/20 04:07:47;;;;;;;4.10;3.70;;;;;;;;;;5044192;28;20040;-78
2022/07/20 04:10:12;;;;;;;4.55;3.88;;;;;;;;;;5042726;28;20037;-76
2022/07/20 04:12:37;;;;;;;6.22;4.20;;;;;;;;;;5042323;28;20466;-74
2022/07/20 04:15:03;;;;;;;4.47;4.03;;;;;;;;;;5041931;28;20029;-75
2022/07/20 04:17:28;;;;;;;4.40;4.00;;;;;;;;;;5043469;28;20051;-75
2022/07/20 04:19:54;;;;;;;4.07;3.78;;;;;;;;;;5042471;28;20368;-77
2022/07/20 04:22:19;;;;;;;4.20;3.85;;;;;;;;;;5041787;28;20339;-79
2022/07/20 04:24:45;;;;;;;4.15;3.72;;;;;;;;;;5041651;28;20031;-79
2022/07/20 04:27:10;;;;;;;6.72;4.00;;;;;;;;;;5039253;28;20133;-81
2022/07/20 04:29:36;;;;;;;3.78;3.38;;;;;;;;;;5040339;28;20029;-79
2022/07/20 04:32:01;;;;;;;4.05;3.38;;;;;;;;;;5037926;28;20040;-80
2022/07/20 04:34:27;;;;;;;4.45;3.42;;;;;;;;;;5038212;28;20037;-79
2022/07/20 04:36:53;;;;;;;3.25;2.95;;;;;;;;;;5042313;28;21451;-78
2022/07/20 04:39:18;;;;;;;3.55;3.25;;;;;;;;;;5042612;28;20345;-79
2022/07/20 04:41:44;;;;;;;4.15;3.35;;;;;;;;;;5041684;28;20061;-83
2022/07/20 04:44:09;;;;;;;3.90;2.78;;;;;;;;;;5042274;28;20515;-80
2022/07/20 04:46:35;;;;;;;3.70;3.30;;;;;;;;;;5036330;28;20482;-78
2022/07/20 04:49:00;;;;;;;4.88;3.30;;;;;;;;;;5037073;28;20037;-79
2022/07/20 04:51:26;;;;;;;3.85;2.97;;;;;;;;;;5035760;28;20476;-75
2022/07/20 04:53:51;;;;;;;3.30;3.00;;;;;;;;;;5034952;28;20411;-76
2022/07/20 04:56:18;;;;;;;4.43;3.25;;;;;;;;;;5036848;28;20502;-75
2022/07/20 04:58:44;;;;;;;4.85;3.10;;;;;;;;;;5037986;28;20108;-77
2022/07/20 05:01:09;;;;;;;3.28;2.97;;;;;;;;;;5041830;28;20166;-75
2022/07/20 05:03:34;;;;;;;3.80;3.05;;;;;;;;;;5041000;28;20021;-74
2022/07/20 05:06:00;;;;;;;3.22;2.92;;;;;;;;;;5040447;28;20762;-71
2022/07/20 05:08:25;;;;;;;3.63;3.05;;;;;;;;;;5032889;28;20017;-73
2022/07/20 05:10:50;;;;;;;3.80;3.00;;;;;;;;;;5041335;28;20028;-71
2022/07/20 05:13:16;;;;;;;3.92;2.90;;;;;;;;;;5040398;28;20024;-70
2022/07/20 05:15:41;;;;;;;3.50;3.00;;;;;;;;;;5041203;28;20096;-75
2022/07/20 05:18:06;;;;;;;4.55;3.17;;;;;;;;;;5041526;28;20497;-71
2022/07/20 05:20:32;;;;;;;5.25;2.97;;;;;;;;;;5042083;28;20376;-72
2022/07/20 05:22:57;;;;;;;4.22;3.55;;;;;;;;;;5040168;28;20029;-77
2022/07/20 05:25:22;;;;;;;5.82;3.25;;;;;;;;;;5040632;28;20028;-72
2022/07/20 05:27:48;;;;;;;4.07;3.67;;;;;;;;;;5040425;28;20090;-71
2022/07/20 05:30:13;;;;;;;3.30;3.00;;;;;;;;;;5038966;28;20545;-73
2022/07/20 05:32:39;;;;;;;3.20;2.90;;;;;;;;;;5039566;28;20068;-74
2022/07/20 05:35:05;;;;;;;4.07;2.85;;;;;;;;;;5038419;28;20067;-71
2022/07/20 05:37:31;;;;;;;4.93;3.38;;;;;;;;;;5031094;28;20036;-70
2022/07/20 05:39:56;;;;;;;3.70;2.70;;;;;;;;;;5027408;28;20025;-76
2022/07/20 05:42:21;;;;;;;4.13;2.85;;;;;;;;;;5027758;28;20036;-74
2022/07/20 05:44:47;;;;;;;4.82;2.80;;;;;;;;;;5026522;28;20032;-72
2022/07/20 05:47:12;;;;;;;3.05;2.75;;;;;;;;;;5029041;28;20025;-73
2022/07/20 05:49:37;;;;;;;2.97;2.78;;;;;;;;;;5027599;28;20056;-73
2022/07/20 05:52:03;;;;;;;2.70;2.50;;;;;;;;;;5028694;28;20017;-70
2022/07/20 05:54:28;;;;;;;3.28;3.00;;;;;;;;;;5022598;28;20033;-71
2022/07/20 05:56:54;;;;;;;3.05;2.70;;;;;;;;;;5029543;28;20106;-71
2022/07/20 05:59:19;;;;;;;3.90;2.88;;;;;;;;;;5027233;28;20096;-71
2022/07/20 06:01:45;;;;;;;4.40;2.75;;;;;;;;;;5027404;28;20051;-71
2022/07/20 06:04:13;;;;;;;3.58;2.55;;;;;;;;;;5026989;28;20051;-76
2022/07/20 06:06:38;;;;;;;2.92;2.72;;;;;;;;;;5027221;28;20086;-71
2022/07/20 06:09:04;;;;;;;3.25;2.72;;;;;;;;;;5027479;28;20032;-74
2022/07/20 06:11:30;;;;;;;4.80;2.30;;;;;;;;;;5039127;28;20021;-71
2022/07/20 06:13:55;;;;;;;6.03;2.42;;;;;;;;;;5041878;28;20039;-72
2022/07/20 06:16:21;;;;;;;4.30;2.50;;;;;;;;;;5041069;28;20482;-71
2022/07/20 06:18:46;;;;;;;2.53;2.33;;;;;;;;;;5035915;28;20112;-77
2022/07/20 06:21:13;;;;;;;4.60;2.40;;;;;;;;;;5043679;28;20029;-74
2022/07/20 06:23:39;;;;;;;3.97;2.53;;;;;;;;;;5043037;28;20033;-73
2022/07/20 06:26:04;;;;;;;3.05;2.35;;;;;;;;;;5043792;28;20044;-72
2022/07/20 06:28:30;;;;;;;3.08;2.20;;;;;;;;;;5042889;28;20117;-70
2022/07/20 06:30:55;;;;;;;3.05;2.38;;;;;;;;;;5044416;28;20033;-77
2022/07/20 06:33:20;;;;;;;2.95;2.30;;;;;;;;;;5043556;28;20023;-72
2022/07/20 06:35:46;;;;;;;3.08;2.20;;;;;;;;;;5042761;28;20021;-71
2022/07/20 06:38:11;;;;;;;7.63;2.17;;;;;;;;;;5043638;28;20788;-75
2022/07/20 06:40:36;;;;;;;7.25;2.00;;;;;;;;;;5043615;28;20033;-72
2022/07/20 06:43:02;;;;;;;2.40;2.20;;;;;;;;;;5044763;28;20032;-72
2022/07/20 06:45:27;;;;;;;2.55;2.22;;;;;;;;;;5044991;28;20344;-71
2022/07/20 06:47:52;;;;;;;2.45;2.25;;;;;;;;;;5043721;28;20017;-73
2022/07/20 06:50:18;;;;;;;3.45;2.40;;;;;;;;;;5042964;28;20029;-72
2022/07/20 06:52:43;;;;;;;2.60;2.40;;;;;;;;;;5033530;28;20052;-73
2022/07/20 06:55:09;;;;;;;3.08;2.50;;;;;;;;;;5041646;28;20032;-70
2022/07/20 06:57:34;;;;;;;5.50;2.40;;;;;;;;;;5043171;28;20439;-72
2022/07/20 07:00:01;;;;;;;4.30;2.80;;;;;;;;;;5042625;28;20072;-74
2022/07/20 07:02:26;;;;;;;3.95;3.05;;;;;;;;;;5043393;28;20134;-71
2022/07/20 07:04:52;;;;;;;4.88;2.67;;;;;;;;;;5042106;28;20025;-70
2022/07/20 07:07:17;;;;;;;4.40;3.03;;;;;;;;;;5043153;28;20039;-70
2022/07/20 07:09:42;;;;;;;3.42;2.50;;;;;;;;;;5042752;28;20060;-70
2022/07/20 07:12:08;;;;;;;3.40;2.20;;;;;;;;;;5042426;28;20029;-72
2022/07/20 07:14:34;;;;;;;3.90;2.35;;;;;;;;;;5041258;28;20058;-73
2022/07/20 07:16:59;;;;;;;2.95;2.45;;;;;;;;;;5042694;28;20118;-74
2022/07/20 07:19:24;;;;;;;3.58;2.30;;;;;;;;;;5042170;28;20115;-74
2022/07/20 07:21:50;;;;;;;2.25;2.05;;;;;;;;;;5040011;28;20033;-75
2022/07/20 07:24:15;;;;;;;4.78;2.42;;;;;;;;;;5033696;28;20032;-76
2022/07/20 07:26:41;;;;;;;6.07;2.65;;;;;;;;;;5043631;28;20115;-75
2022/07/20 07:29:07;;;;;;;4.55;2.40;;;;;;;;;;5044078;28;20111;-75
2022/07/20 07:31:33;;;;;;;6.13;2.67;;;;;;;;;;5043503;28;20025;-74
2022/07/20 07:33:58;;;;;;;2.60;2.35;;;;;;;;;;5042969;28;20036;-74
2022/07/20 07:36:24;;;;;;;2.40;2.20;;;;;;;;;;5043107;28;20045;-78
2022/07/20 07:38:49;;;;;;;3.00;2.70;;;;;;;;;;5042615;28;20083;-76
2022/07/20 07:41:15;;;;;;;2.90;2.50;;;;;;;;;;5033536;28;20033;-75
2022/07/20 07:43:40;;;;;;;6.78;2.67;;;;;;;;;;5044374;28;20024;-74
2022/07/20 07:46:06;;;;;;;4.28;2.40;;;;;;;;;;5044049;28;20032;-75
2022/07/20 07:48:31;;;;;;;2.35;2.15;;;;;;;;;;5043186;28;20025;-74
2022/07/20 07:50:57;;;;;;;3.97;2.17;;;;;;;;;;5043035;28;20475;-74
2022/07/20 07:53:22;;;;;;;4.47;2.10;;;;;;;;;;5044112;28;20448;-73
2022/07/20 07:55:48;;;;;;;2.70;2.20;;;;;;;;;;5043901;28;20028;-74
2022/07/20 07:58:13;;;;;;;2.05;1.92;;;;;;;;;;5042858;28;20025;-77
2022/07/20 08:00:39;;;;;;;2.47;2.20;;;;;;;;;;5043630;28;20047;-75
2022/07/20 08:03:04;;;;;;;2.38;2.17;;;;;;;;;;5042197;28;20036;-74
2022/07/20 08:05:30;;;;;;;2.53;1.90;;;;;;;;;;5043706;28;20021;-75
2022/07/20 08:07:55;;;;;;;2.10;1.80;;;;;;;;;;5043714;28;20036;-74
2022/07/20 08:10:21;;;;;;;5.93;2.10;;;;;;;;;;5044025;28;20035;-75
2022/07/20 08:12:46;;;;;;;2.22;1.67;;;;;;;;;;5033355;28;20021;-74
2022/07/20 08:15:12;;;;;;;3.03;2.63;;;;;;;;;;5041481;28;20337;-74
2022/07/20 08:17:38;;;;;;;3.08;2.30;;;;;;;;;;5043510;28;20332;-73
2022/07/20 08:20:06;;;;;;;4.07;1.90;;;;;;;;;;5042866;28;20037;-76
2022/07/20 08:22:31;;;;;;;5.47;2.30;;;;;;;;;;5043307;28;20130;-75
2022/07/20 08:24:57;;;;;;;2.67;2.38;;;;;;;;;;5042230;28;20017;-75
2022/07/20 08:27:22;;;;;;;2.47;1.90;;;;;;;;;;5046254;28;20440;-75
2022/07/20 08:29:48;;;;;;;2.53;1.55;;;;;;;;;;5043355;28;20013;-75
2022/07/20 08:32:13;;;;;;;3.80;1.73;;;;;;;;;;5042444;28;20033;-76
2022/07/20 08:34:38;;;;;;;1.40;1.30;;;;;;;;;;5041968;28;20031;-74
2022/07/20 08:37:04;;;;;;;2.95;1.90;;;;;;;;;;5042958;28;20034;-73
2022/07/20 08:39:29;;;;;;;1.98;1.75;;;;;;;;;;5041247;28;20032;-79
2022/07/20 08:41:54;;;;;;;1.63;1.52;;;;;;;;;;5030395;28;20562;-73
2022/07/20 08:44:20;;;;;;;3.50;1.40;;;;;;;;;;5042341;28;20612;-74
2022/07/20 08:46:45;;;;;;;2.85;1.80;;;;;;;;;;5043120;28;20032;-75
2022/07/20 08:49:14;;;;;;;2.35;1.50;;;;;;;;;;5042195;28;20032;-75
2022/07/20 08:51:40;;;;;;;2.97;1.73;;;;;;;;;;5031311;28;20029;-74
2022/07/20 08:54:05;;;;;;;2.45;1.60;;;;;;;;;;5033819;28;20052;-72
2022/07/20 08:56:30;;;;;;;3.33;1.70;;;;;;;;;;5036614;28;20032;-72
2022/07/20 08:58:56;;;;;;;2.83;1.70;;;;;;;;;;5029154;28;20033;-72
2022/07/20 09:01:21;;;;;;;2.72;1.73;;;;;;;;;;5029826;28;20025;-75
2022/07/20 09:04:06;;;;;;;1.85;1.60;;;;;;;;;;5042062;28;20028;-73
2022/07/20 09:06:31;;;;;;;7.82;1.90;;;;;;;;;;5041478;28;20064;-72
2022/07/20 09:09:06;;;;;;;6.65;2.17;;;;;;;;;;5041258;28;20064;-72
2022/07/20 09:11:33;;;;;;;4.68;1.52;;;;;;;;;;5041026;28;20083;-75
2022/07/20 09:13:58;;;;;;;1.95;1.60;;;;;;;;;;5040067;28;20044;-73
2022/07/20 09:16:31;;;;;;;2.40;1.60;;;;;;;;;;5040447;28;20087;-72
2022/07/20 09:18:57;;;;;;;1.60;1.50;;;;;;;;;;5039184;28;20017;-72
2022/07/20 09:21:29;;;;;;;6.45;1.80;;;;;;;;;;5031103;28;20051;-74
2022/07/20 09:23:56;;;;;;;3.88;1.95;;;;;;;;;;5040651;28;20021;-73
2022/07/20 09:26:22;;;;;;;4.25;1.92;;;;;;;;;;5041024;28;20508;-72
2022/07/20 09:28:51;;;;;;;3.70;1.80;;;;;;;;;;5041745;28;20120;-72
2022/07/20 09:31:21;;;;;;;2.45;1.90;;;;;;;;;;5041974;28;20379;-72
2022/07/20 09:33:54;;;;;;;5.82;2.10;;;;;;;;;;5043107;28;20051;-72
2022/07/20 09:36:20;;;;;;;1.98;1.52;;;;;;;;;;5039478;28;20039;-72
2022/07/20 09:38:45;;;;;;;4.13;1.80;;;;;;;;;;5041100;28;20024;-72
2022/07/20 09:41:22;;;;;;;2.40;1.83;;;;;;;;;;5041387;28;20037;-77
2022/07/20 09:43:47;;;;;;;2.58;1.90;;;;;;;;;;5040400;28;20360;-74
2022/07/20 09:46:16;;;;;;;4.05;2.50;;;;;;;;;;5040514;28;20035;-71
2022/07/20 09:48:43;;;;;;;2.15;1.70;;;;;;;;;;5029076;28;20459;-71
2022/07/20 09:51:18;;;;;;;4.22;2.70;;;;;;;;;;5036888;28;20067;-72
2022/07/20 09:53:43;;;;;;;8.23;2.05;;;;;;;;;;5039855;28;20049;-73
2022/07/20 09:56:09;;;;;;;3.17;1.60;;;;;;;;;;5041281;28;20056;-73
2022/07/20 09:58:34;;;;;;;1.73;1.60;;;;;;;;;;5040358;28;20129;-72
2022/07/20 10:01:00;;;;;;;1.70;1.58;;;;;;;;;;5041043;28;20036;-73
2022/07/20 10:03:25;;;;;;;1.50;1.40;;;;;;;;;;5040837;28;21274;-73
2022/07/20 10:05:51;;;;;;;2.20;1.67;;;;;;;;;;5039649;28;20029;-76
2022/07/20 10:08:17;;;;;;;1.73;1.63;;;;;;;;;;5026337;28;20337;-74
2022/07/20 10:10:42;;;;;;;1.75;1.55;;;;;;;;;;5040080;28;20448;-72
2022/07/20 10:13:08;;;;;;;2.28;1.63;;;;;;;;;;5040065;28;20029;-70
2022/07/20 10:15:46;;;;;;;1.67;1.55;;;;;;;;;;5040716;28;20102;-72
2022/07/20 10:18:12;;;;;;;1.88;1.70;;;;;;;;;;5040765;28;20037;-73
2022/07/20 10:20:37;;;;;;;2.20;1.42;;;;;;;;;;5040323;28;20052;-73
2022/07/20 10:23:15;;;;;;;2.05;1.60;;;;;;;;;;5041427;28;20441;-72
2022/07/20 10:25:41;;;;;;;1.95;1.30;;;;;;;;;;5039897;28;20033;-73
2022/07/20 10:28:27;;;;;;;1.52;1.42;;;;;;;;;;5028382;28;20032;-73
2022/07/20 10:30:52;;;;;;;1.60;1.50;;;;;;;;;;5038771;28;20052;-77
2022/07/20 10:33:18;;;;;;;2.25;1.30;;;;;;;;;;5040224;28;20021;-72
2022/07/20 10:35:45;;;;;;;4.75;1.55;;;;;;;;;;5040925;28;20406;-74
2022/07/20 10:38:11;;;;;;;3.30;2.05;;;;;;;;;;5041035;28;20139;-71
2022/07/20 10:41:31;;;;;;;3.10;1.50;;;;;;;;;;5040612;28;20112;-75
2022/07/20 10:43:21;;;;;;;1.65;1.45;;;;;;;;;;5040453;28;20055;-72
2022/07/20 10:45:47;;;;;;;1.75;1.27;;;;;;;;;;5039411;28;20455;-73
2022/07/20 10:48:12;;;;;;;2.47;1.50;;;;;;;;;;5040644;28;20028;-74
2022/07/20 10:50:37;;;;;;;1.60;1.50;;;;;;;;;;5028566;28;20029;-73
2022/07/20 10:53:15;;;;;;;1.85;1.48;;;;;;;;;;5040346;28;20052;-72
2022/07/20 10:55:52;;;;;;;1.35;1.20;;;;;;;;;;5038852;28;20344;-72
2022/07/20 10:58:24;;;;;;;2.25;1.38;;;;;;;;;;5040171;28;20090;-75
2022/07/20 11:00:50;;;;;;;3.10;1.45;;;;;;;;;;5041099;28;20040;-79
2022/07/20 11:03:22;;;;;;;4.15;1.50;;;;;;;;;;5044277;28;20399;-72
2022/07/20 11:05:48;;;;;;;3.55;1.48;;;;;;;;;;5043512;28;20051;-74
2022/07/20 11:08:14;;;;;;;1.98;1.50;;;;;;;;;;5044109;28;20108;-72
2022/07/20 11:10:40;;;;;;;3.15;1.38;;;;;;;;;;5043526;28;20112;-74
2022/07/20 11:13:07;;;;;;;2.00;1.40;;;;;;;;;;5033716;28;20024;-70
2022/07/20 11:15:40;;;;;;;1.27;1.17;;;;;;;;;;5043199;28;20025;-72
2022/07/20 11:18:06;;;;;;;1.20;1.10;;;;;;;;;;5044161;28;20086;-72
2022/07/20 11:20:31;;;;;;;3.05;1.40;;;;;;;;;;5043941;28;20036;-73
2022/07/20 11:22:57;;;;;;;1.88;1.35;;;;;;;;;;5043952;28;20033;-73
2022/07/20 11:25:24;;;;;;;5.15;1.60;;;;;;;;;;5044156;28;20040;-75
2022/07/20 11:28:02;;;;;;;3.25;1.40;;;;;;;;;;5043572;28;20438;-74
2022/07/20 11:30:32;;;;;;;2.55;1.30;;;;;;;;;;5043433;28;20051;-73
2022/07/20 11:32:58;;;;;;;3.17;1.50;;;;;;;;;;5044569;28;20041;-71
2022/07/20 11:35:23;;;;;;;1.45;1.33;;;;;;;;;;5032598;28;20036;-71
2022/07/20 11:37:50;;;;;;;2.05;1.33;;;;;;;;;;5042360;28;20756;-71
2022/07/20 11:40:18;;;;;;;2.25;1.65;;;;;;;;;;5042588;28;20057;-75
2022/07/20 11:43:04;;;;;;;2.28;1.52;;;;;;;;;;5042593;28;20024;-75
2022/07/20 11:45:29;;;;;;;1.83;1.42;;;;;;;;;;5042563;28;20017;-74
2022/07/20 11:47:54;;;;;;;1.45;1.30;;;;;;;;;;5043670;28;20025;-72
2022/07/20 11:50:20;;;;;;;4.20;1.52;;;;;;;;;;5043426;28;20025;-72
2022/07/20 11:52:45;;;;;;;1.90;1.40;;;;;;;;;;5043298;28;20084;-72
2022/07/20 11:55:11;;;;;;;1.48;1.38;;;;;;;;;;5043346;28;20037;-74
2022/07/20 11:57:38;;;;;;;2.95;1.85;;;;;;;;;;5044065;28;20083;-72
2022/07/20 12:00:04;;;;;;;1.27;1.10;;;;;;;;;;5043631;28;20436;-72
2022/07/20 12:02:29;;;;;;;2.33;1.60;;;;;;;;;;5043906;28;20035;-75
2022/07/20 12:04:55;;;;;;;2.42;1.30;;;;;;;;;;5036650;28;20025;-72
2022/07/20 12:10:17;;;;;;;2.23;1.10;;;;;;;;;;5043870;28;20471;-72
2022/07/20 12:12:47;;;;;;;1.58;1.35;;;;;;;;;;5042704;28;20021;-76
2022/07/20 12:15:13;;;;;;;1.20;1.10;;;;;;;;;;5043953;28;20020;-72
2022/07/20 12:17:46;;;;;;;5.78;1.40;;;;;;;;;;5043589;28;20120;-72
2022/07/20 12:20:12;;;;;;;1.67;1.30;;;;;;;;;;5044167;28;22541;-73
2022/07/20 12:22:37;;;;;;;1.45;1.27;;;;;;;;;;5033895;28;20488;-72
2022/07/20 12:25:02;;;;;;;2.17;1.58;;;;;;;;;;5041545;28;20083;-69
2022/07/20 12:27:29;;;;;;;2.75;1.30;;;;;;;;;;5042934;28;20033;-72
2022/07/20 12:29:55;;;;;;;2.67;1.20;;;;;;;;;;5042241;28;20029;-72
2022/07/20 12:32:27;;;;;;;2.88;1.20;;;;;;;;;;5042210;28;20046;-73
2022/07/20 12:34:54;;;;;;;1.95;1.00;;;;;;;;;;5041847;28;20025;-72
2022/07/20 12:37:20;;;;;;;1.73;1.42;;;;;;;;;;5042728;28;20364;-72
2022/07/20 12:39:47;;;;;;;4.60;1.38;;;;;;;;;;5043561;28;20033;-72
2022/07/20 12:42:13;;;;;;;3.10;1.37;;;;;;;;;;5043835;28;20037;-72
2022/07/20 12:44:39;;;;;;;1.67;1.48;;;;;;;;;;5042438;28;20070;-73
2022/07/20 12:47:05;;;;;;;1.85;1.30;;;;;;;;;;5042283;28;20021;-73
2022/07/20 12:49:31;;;;;;;1.73;1.38;;;;;;;;;;5043457;28;20052;-73
2022/07/20 12:51:56;;;;;;;2.13;1.60;;;;;;;;;;5042593;28;20400;-74
2022/07/20 12:54:22;;;;;;;3.47;1.60;;;;;;;;;;5041482;28;20124;-73
2022/07/20 12:56:47;;;;;;;3.28;1.42;;;;;;;;;;5042401;28;20119;-72
2022/07/20 12:59:13;;;;;;;1.80;1.40;;;;;;;;;;5041845;28;20060;-70
2022/07/20 13:01:39;;;;;;;1.25;0.98;;;;;;;;;;5029764;28;20452;-73
2022/07/20 13:04:05;;;;;;;5.78;1.50;;;;;;;;;;5041764;28;20060;-72
2022/07/20 13:06:33;;;;;;;2.08;1.25;;;;;;;;;;5031111;28;20037;-72
2022/07/20 13:08:59;;;;;;;1.40;1.10;;;;;;;;;;5039447;28;20037;-72
2022/07/20 13:11:24;;;;;;;1.40;1.20;;;;;;;;;;5042992;28;20035;-71
2022/07/20 13:13:50;;;;;;;2.60;1.60;;;;;;;;;;5042203;28;20024;-72
2022/07/20 13:16:17;;;;;;;1.75;1.20;;;;;;;;;;5042594;28;20065;-70
2022/07/20 13:18:43;;;;;;;4.75;1.15;;;;;;;;;;5041678;28;21070;-76
2022/07/20 13:21:08;;;;;;;2.25;1.50;;;;;;;;;;5041813;28;20452;-72
2022/07/20 13:23:33;;;;;;;3.17;1.30;;;;;;;;;;5041090;28;20017;-73
2022/07/20 13:25:59;;;;;;;1.77;1.20;;;;;;;;;;5042045;28;20860;-72
2022/07/20 13:28:24;;;;;;;1.05;1.02;;;;;;;;;;5038020;28;20469;-70
2022/07/20 13:30:49;;;;;;;1.10;1.10;;;;;;;;;;5033239;28;20053;-70
2022/07/20 13:33:15;;;;;;;1.90;1.23;;;;;;;;;;5040341;28;20025;-75
2022/07/20 13:35:42;;;;;;;3.35;1.20;;;;;;;;;;5040356;28;20485;-71
2022/07/20 13:38:08;;;;;;;1.52;1.13;;;;;;;;;;5041089;28;20428;-73
2022/07/20 13:40:34;;;;;;;3.05;1.30;;;;;;;;;;5040449;28;20048;-71
2022/07/20 13:42:59;;;;;;;2.28;1.65;;;;;;;;;;5041707;28;20428;-71
2022/07/20 13:45:25;;;;;;;1.15;1.08;;;;;;;;;;5040938;28;20017;-71
2022/07/20 13:47:50;;;;;;;3.03;1.23;;;;;;;;;;5040417;28;20017;-74
2022/07/20 13:50:15;;;;;;;1.98;1.52;;;;;;;;;;5041311;28;20033;-71
2022/07/20 13:52:41;;;;;;;1.40;1.30;;;;;;;;;;5040793;28;20041;-74
2022/07/20 13:55:06;;;;;;;2.85;1.08;;;;;;;;;;5040605;28;20431;-74
2022/07/20 13:57:32;;;;;;;2.10;1.30;;;;;;;;;;5041710;28;20115;-71
2022/07/20 13:59:57;;;;;;;2.72;1.45;;;;;;;;;;5040806;28;20457;-69
2022/07/20 14:02:23;;;;;;;1.38;1.00;;;;;;;;;;5041165;28;20093;-71
2022/07/20 14:04:48;;;;;;;2.72;1.15;;;;;;;;;;5040788;28;20121;-73
2022/07/20 14:07:13;;;;;;;1.98;1.42;;;;;;;;;;5040712;28;20064;-70
2022/07/20 14:09:39;;;;;;;1.77;1.40;;;;;;;;;;5039506;28;20107;-76
2022/07/20 14:12:04;;;;;;;1.27;1.17;;;;;;;;;;5041772;28;20029;-75
2022/07/20 14:14:30;;;;;;;3.88;1.40;;;;;;;;;;5041487;28;20036;-76
2022/07/20 14:16:56;;;;;;;3.13;1.23;;;;;;;;;;5040969;28;20052;-70
2022/07/20 14:19:21;;;;;;;2.75;1.40;;;;;;;;;;5041311;28;21026;-72
2022/07/20 14:21:47;;;;;;;1.70;1.10;;;;;;;;;;5039772;28;20441;-72
2022/07/20 14:24:12;;;;;;;7.45;1.17;;;;;;;;;;5040281;28;20337;-74
2022/07/20 14:26:38;;;;;;;3.13;1.40;;;;;;;;;;5040094;28;20036;-71
2022/07/20 14:29:04;;;;;;;5.28;1.30;;;;;;;;;;5040677;28;20020;-74
2022/07/20 14:31:30;;;;;;;4.70;1.20;;;;;;;;;;5040493;28;20028;-72
2022/07/20 14:33:56;;;;;;;1.35;1.25;;;;;;;;;;5040646;28;20300;-70
2022/07/20 14:36:21;;;;;;;2.33;1.35;;;;;;;;;;5043009;28;20095;-74
2022/07/20 14:38:46;;;;;;;2.60;1.13;;;;;;;;;;5043726;28;20352;-70
2022/07/20 14:41:12;;;;;;;17.50;1.65;;;;;;;;;;5034409;28;20082;-70
2022/07/20 14:43:37;;;;;;;2.00;1.33;;;;;;;;;;5043708;28;20099;-72